createdAt,value
2022-09-13T00:02:06.030Z,100267.50
2022-09-13T00:04:51.381Z,100272.06
2022-09-13T00:07:36.282Z,100277.28
2022-09-13T00:10:21.551Z,100277.41
2022-09-13T00:13:07.662Z,100272.16
2022-09-13T00:15:52.781Z,100267.75
2022-09-13T00:18:37.819Z,100260.81
2022-09-13T00:21:24.463Z,100255.44
2022-09-13T00:24:09.591Z,100244.16
2022-09-13T00:26:54.389Z,100241.44
2022-09-13T00:29:39.109Z,100242.44
2022-09-13T00:32:23.806Z,100234.59
2022-09-13T00:35:09.089Z,100221.34
2022-09-13T00:37:54.104Z,100223.94
2022-09-13T00:40:38.992Z,100217.84
2022-09-13T00:43:49.893Z,100210.81
2022-09-13T00:46:43.667Z,100197.69
2022-09-13T00:49:35.790Z,100197.59
2022-09-13T00:52:24.484Z,100186.97
2022-09-13T00:55:20.059Z,100187.78
2022-09-13T00:58:13.401Z,100173.63
2022-09-13T01:01:01.236Z,100180.59
2022-09-13T01:03:48.758Z,100183.22
2022-09-13T01:06:37.593Z,100178.78
2022-09-13T01:09:23.855Z,100160.31
2022-09-13T01:12:41.864Z,100169.84
2022-09-13T01:15:27.284Z,100162.03
2022-09-13T01:18:12.549Z,100156.78
2022-09-13T01:21:03.493Z,100162.03
2022-09-13T01:24:10.726Z,100143.66
2022-09-13T01:27:10.829Z,100146.94
2022-09-13T01:30:22.167Z,100152.94
2022-09-13T01:33:41.333Z,100149.34
2022-09-13T01:36:26.295Z,100147.56
2022-09-13T01:39:17.669Z,100176.28
2022-09-13T01:42:38.576Z,100159.19
2022-09-13T01:45:43.156Z,100172.41
2022-09-13T01:48:36.770Z,100176.06
2022-09-13T01:51:46.995Z,100176.94
2022-09-13T01:54:39.947Z,100175.19
2022-09-13T01:57:33.124Z,100181.38
2022-09-13T02:00:18.769Z,100199.03
2022-09-13T02:03:14.127Z,100206.06
2022-09-13T02:06:13.835Z,100205.34
2022-09-13T02:09:10.264Z,100189.63
2022-09-13T02:12:03.537Z,100205.22
2022-09-13T02:14:58.659Z,100203.66
2022-09-13T02:18:17.742Z,100210.63
2022-09-13T02:21:12.454Z,100216.88
2022-09-13T02:24:06.433Z,100206.31
2022-09-13T02:26:55.386Z,100213.78
2022-09-13T02:29:44.968Z,100212.97
2022-09-13T02:32:44.084Z,100216.69
2022-09-13T02:35:58.724Z,100206.22
2022-09-13T02:39:06.308Z,100208.78
2022-09-13T02:42:09.240Z,100203.66
2022-09-13T02:44:58.560Z,100215.94
2022-09-13T02:47:43.593Z,100209.13
2022-09-13T02:50:46.942Z,100211.63
2022-09-13T02:53:34.676Z,100226.50
2022-09-13T02:56:47.424Z,100216.03
2022-09-13T02:59:32.366Z,100214.38
2022-09-13T03:02:21.837Z,100217.75
2022-09-13T03:05:07.245Z,100209.91
2022-09-13T03:07:53.126Z,100213.44
2022-09-13T03:10:59.619Z,100220.56
2022-09-13T03:13:53.339Z,100205.03
2022-09-13T03:17:03.019Z,100199.56
2022-09-13T03:20:05.727Z,100196.16
2022-09-13T03:23:09.584Z,100199.81
2022-09-13T03:26:27.267Z,100210.16
2022-09-13T03:29:34.636Z,100192.94
2022-09-13T03:32:36.491Z,100189.53
2022-09-13T03:36:08.336Z,100185.97
2022-09-13T03:39:02.170Z,100184.16
2022-09-13T03:41:51.847Z,100187.72
2022-09-13T03:44:40.169Z,100201.56
2022-09-13T03:47:28.908Z,100199.88
2022-09-13T03:50:19.246Z,100187.63
2022-09-13T03:53:08.964Z,100164.28
2022-09-13T03:55:54.121Z,100168.94
2022-09-13T03:58:38.847Z,100177.63
2022-09-13T04:01:24.893Z,100174.91
2022-09-13T04:04:10.019Z,100158.41
2022-09-13T04:06:54.816Z,100157.41
2022-09-13T04:09:39.791Z,100157.47
2022-09-13T04:12:24.873Z,100175.72
2022-09-13T04:15:10.044Z,100173.00
2022-09-13T04:17:54.746Z,100175.72
2022-09-13T04:20:40.171Z,100180.88
2022-09-13T04:23:27.306Z,100182.53
2022-09-13T04:26:12.366Z,100168.53
2022-09-13T04:28:57.358Z,100179.88
2022-09-13T04:31:42.359Z,100180.69
2022-09-13T04:34:27.749Z,100184.34
2022-09-13T04:37:13.116Z,100183.44
2022-09-13T04:39:58.266Z,100180.63
2022-09-13T04:42:44.571Z,100172.63
2022-09-13T04:45:29.880Z,100184.22
2022-09-13T04:48:14.972Z,100185.00
2022-09-13T04:51:04.186Z,100195.47
2022-09-13T04:53:53.716Z,100184.06
2022-09-13T04:56:39.009Z,100188.56
2022-09-13T04:59:24.433Z,100192.94
2022-09-13T05:02:09.781Z,100186.78
2022-09-13T05:04:55.138Z,100177.38
2022-09-13T05:07:40.477Z,100184.31
2022-09-13T05:10:25.532Z,100171.41
2022-09-13T05:13:10.416Z,100172.16
2022-09-13T05:16:00.690Z,100183.69
2022-09-13T05:18:45.711Z,100191.66
2022-09-13T05:21:31.076Z,100194.03
2022-09-13T05:24:16.350Z,100186.16
2022-09-13T05:27:01.295Z,100194.94
2022-09-13T05:29:46.145Z,100197.53
2022-09-13T05:32:32.297Z,100201.03
2022-09-13T05:35:17.569Z,100201.19
2022-09-13T05:38:02.801Z,100194.94
2022-09-13T05:40:48.436Z,100182.75
2022-09-13T05:46:51.074Z,100180.94
2022-09-13T05:49:49.852Z,100177.56
2022-09-13T05:52:40.943Z,100169.66
2022-09-13T05:55:25.937Z,100165.38
2022-09-13T05:58:11.351Z,100181.94
2022-09-13T06:00:57.377Z,100181.66
2022-09-13T06:03:43.010Z,100176.31
2022-09-13T06:06:28.087Z,100167.47
2022-09-13T06:09:12.995Z,100172.59
2022-09-13T06:11:57.752Z,100188.16
2022-09-13T06:14:42.646Z,100181.94
2022-09-13T06:17:27.496Z,100200.16
2022-09-13T06:20:12.927Z,100189.53
2022-09-13T06:22:57.867Z,100199.00
2022-09-13T06:25:43.002Z,100202.28
2022-09-13T06:28:28.472Z,100198.84
2022-09-13T06:31:15.972Z,100196.16
2022-09-13T06:34:02.031Z,100198.78
2022-09-13T06:36:47.237Z,100200.19
2022-09-13T06:39:32.134Z,100199.22
2022-09-13T06:42:17.468Z,100198.13
2022-09-13T06:45:03.660Z,100176.06
2022-09-13T06:47:49.160Z,100184.66
2022-09-13T06:50:33.996Z,100185.69
2022-09-13T06:53:19.340Z,100183.09
2022-09-13T06:56:08.760Z,100180.66
2022-09-13T06:58:59.005Z,100179.63
2022-09-13T07:01:44.437Z,100172.78
2022-09-13T07:04:29.754Z,100165.22
2022-09-13T07:07:14.618Z,100167.66
2022-09-13T07:09:59.426Z,100170.25
2022-09-13T07:12:44.411Z,100175.09
2022-09-13T07:15:29.758Z,100161.69
2022-09-13T07:18:15.043Z,100163.91
2022-09-13T07:21:01.886Z,100164.34
2022-09-13T07:23:47.184Z,100163.44
2022-09-13T07:26:32.426Z,100166.50
2022-09-13T07:29:19.741Z,100137.94
2022-09-13T07:32:05.105Z,100154.72
2022-09-13T07:34:50.469Z,100133.91
2022-09-13T07:37:35.346Z,100143.13
2022-09-13T07:40:20.420Z,100144.59
2022-09-13T07:43:05.691Z,100135.72
2022-09-13T07:46:09.036Z,100108.69
2022-09-13T07:48:56.294Z,100113.41
2022-09-13T07:51:43.352Z,100158.75
2022-09-13T07:54:28.250Z,100154.06
2022-09-13T07:57:13.095Z,100173.56
2022-09-13T07:59:58.134Z,100143.88
2022-09-13T08:02:43.505Z,100136.16
2022-09-13T08:05:28.688Z,100124.03
2022-09-13T08:08:14.026Z,100129.34
2022-09-13T08:11:00.843Z,100124.84
2022-09-13T08:13:50.117Z,100122.25
2022-09-13T08:16:35.442Z,100123.50
2022-09-13T08:19:20.726Z,100139.25
2022-09-13T08:22:05.677Z,100127.34
2022-09-13T08:24:50.730Z,100136.34
2022-09-13T08:27:35.875Z,100146.34
2022-09-13T08:30:21.296Z,100146.50
2022-09-13T08:33:06.609Z,100150.75
2022-09-13T08:35:52.525Z,100160.00
2022-09-13T08:38:38.124Z,100197.59
2022-09-13T08:41:41.197Z,100203.06
2022-09-13T08:44:28.348Z,100185.38
2022-09-13T08:47:33.267Z,100180.09
2022-09-13T08:50:26.245Z,100160.78
2022-09-13T08:53:30.401Z,100169.47
2022-09-13T08:57:06.557Z,100165.84
2022-09-13T09:00:04.495Z,100161.91
2022-09-13T09:03:04.946Z,100167.59
2022-09-13T09:05:51.576Z,100198.22
2022-09-13T09:08:43.278Z,100183.31
2022-09-13T09:11:40.499Z,100172.53
2022-09-13T09:14:33.472Z,100178.50
2022-09-13T09:17:23.951Z,100161.00
2022-09-13T09:20:27.314Z,100194.25
2022-09-13T09:23:22.811Z,100170.88
2022-09-13T09:26:19.964Z,100183.81
2022-09-13T09:29:20.756Z,100156.66
2022-09-13T09:32:17.877Z,100160.41
2022-09-13T09:35:02.845Z,100180.16
2022-09-13T09:38:22.869Z,100206.53
2022-09-13T09:41:31.437Z,100193.44
2022-09-13T09:44:19.477Z,100192.44
2022-09-13T09:47:14.215Z,100193.94
2022-09-13T09:50:08.703Z,100206.31
2022-09-13T09:53:21.987Z,100196.94
2022-09-13T09:56:30.107Z,100176.88
2022-09-13T09:59:27.416Z,100190.59
2022-09-13T10:02:21.360Z,100187.41
2022-09-13T10:05:07.084Z,100196.66
2022-09-13T10:07:55.094Z,100183.97
2022-09-13T10:10:43.517Z,100188.03
2022-09-13T10:13:31.904Z,100172.25
2022-09-13T10:16:26.746Z,100191.69
2022-09-13T10:19:24.335Z,100196.63
2022-09-13T10:22:13.351Z,100210.50
2022-09-13T10:25:26.922Z,100213.41
2022-09-13T10:28:16.696Z,100210.03
2022-09-13T10:31:04.392Z,100225.47
2022-09-13T10:33:49.994Z,100211.63
2022-09-13T10:36:53.326Z,100212.13
2022-09-13T10:39:52.440Z,100206.28
2022-09-13T10:42:37.870Z,100194.97
2022-09-13T10:45:26.081Z,100183.94
2022-09-13T10:48:15.880Z,100171.22
2022-09-13T10:51:08.078Z,100196.06
2022-09-13T10:54:23.309Z,100202.81
2022-09-13T10:57:35.735Z,100208.91
2022-09-13T11:00:35.022Z,100194.84
2022-09-13T11:03:42.112Z,100189.41
2022-09-13T11:06:27.208Z,100196.78
2022-09-13T11:09:41.988Z,100198.09
2022-09-13T11:12:43.075Z,100206.50
2022-09-13T11:15:46.397Z,100218.84
2022-09-13T11:18:50.596Z,100218.66
2022-09-13T11:21:50.898Z,100204.53
2022-09-13T11:24:44.185Z,100215.38
2022-09-13T11:27:35.111Z,100227.75
2022-09-13T11:30:26.499Z,100219.69
2022-09-13T11:33:17.347Z,100209.03
2022-09-13T11:36:26.975Z,100199.47
2022-09-13T11:39:37.159Z,100205.53
2022-09-13T11:43:01.826Z,100198.44
2022-09-13T11:46:25.612Z,100191.94
2022-09-13T11:49:32.545Z,100179.06
2022-09-13T11:53:08.484Z,100194.97
2022-09-13T11:56:01.227Z,100161.81
2022-09-13T11:58:51.588Z,100146.09
2022-09-13T12:01:50.802Z,100148.75
2022-09-13T12:05:10.997Z,100121.91
2022-09-13T12:08:02.803Z,100132.91
2022-09-13T12:10:54.158Z,100137.44
2022-09-13T12:13:49.965Z,100134.63
2022-09-13T12:16:40.843Z,100136.50
2022-09-13T12:19:36.447Z,100132.19
2022-09-13T12:22:30.233Z,100142.66
2022-09-13T12:25:24.100Z,100142.22
2022-09-13T12:28:15.793Z,100127.03
2022-09-13T12:31:29.160Z,100127.47
2022-09-13T12:34:31.282Z,100113.16
2022-09-13T12:37:42.107Z,100122.19
2022-09-13T12:41:09.696Z,100125.31
2022-09-13T12:44:03.481Z,100148.47
2022-09-13T12:47:12.276Z,100138.44
2022-09-13T12:50:38.116Z,100144.97
2022-09-13T12:53:29.508Z,100151.97
2022-09-13T12:56:39.351Z,100158.72
2022-09-13T12:59:40.385Z,100145.50
2022-09-13T13:02:28.040Z,100140.97
2022-09-13T13:05:31.751Z,100129.84
2022-09-13T13:08:19.951Z,100132.84
2022-09-13T13:11:13.760Z,100135.13
2022-09-13T13:14:01.583Z,100149.16
2022-09-13T13:16:46.977Z,100136.50
2022-09-13T13:19:35.288Z,100134.03
2022-09-13T13:22:42.040Z,100116.22
2022-09-13T13:25:36.717Z,100118.59
2022-09-13T13:28:44.035Z,100115.88
2022-09-13T13:31:28.872Z,100086.34
2022-09-13T13:34:14.352Z,100099.75
2022-09-13T13:37:22.745Z,100118.88
2022-09-13T13:40:19.724Z,100145.06
2022-09-13T13:43:26.777Z,100134.56
2022-09-13T13:46:11.769Z,100102.78
2022-09-13T13:49:31.869Z,100087.94
2022-09-13T13:52:16.850Z,100097.06
2022-09-13T13:55:23.994Z,100090.94
2022-09-13T13:58:26.899Z,100100.28
2022-09-13T14:01:17.710Z,100100.53
2022-09-13T14:04:31.004Z,100098.97
2022-09-13T14:07:33.241Z,100063.03
2022-09-13T14:10:28.657Z,100085.19
2022-09-13T14:13:45.329Z,100102.69
2022-09-13T14:17:08.386Z,100115.03
2022-09-13T14:19:58.949Z,100100.69
2022-09-13T14:22:43.824Z,100088.22
2022-09-13T14:25:28.670Z,100090.06
2022-09-13T14:28:23.456Z,100093.19
2022-09-13T14:31:17.486Z,100047.38
2022-09-13T14:34:03.367Z,100056.34
2022-09-13T14:36:53.728Z,100073.72
2022-09-13T14:39:38.792Z,100085.47
2022-09-13T14:42:24.792Z,100077.75
2022-09-13T14:45:20.479Z,100061.06
2022-09-13T14:48:29.850Z,100033.69
2022-09-13T14:51:21.129Z,100068.72
2022-09-13T14:54:15.286Z,100074.25
2022-09-13T14:57:03.314Z,100075.50
2022-09-13T14:59:52.585Z,100062.19
2022-09-13T15:02:39.019Z,100064.88
2022-09-13T15:05:27.444Z,100057.06
2022-09-13T15:08:34.326Z,100057.44
2022-09-13T15:11:35.145Z,100060.06
2022-09-13T15:14:35.497Z,100050.69
2022-09-13T15:17:21.090Z,100067.84
2022-09-13T15:20:12.567Z,100056.53
2022-09-13T15:22:57.829Z,100043.47
2022-09-13T15:25:51.435Z,100019.25
2022-09-13T15:28:43.235Z,100034.09
2022-09-13T15:31:33.393Z,100039.91
2022-09-13T15:34:18.713Z,100036.84
2022-09-13T15:37:12.506Z,100045.97
2022-09-13T15:40:22.274Z,100077.59
2022-09-13T15:43:07.548Z,100063.09
2022-09-13T15:45:52.768Z,100054.41
2022-09-13T15:48:37.825Z,100066.06
2022-09-13T15:51:22.892Z,100054.41
2022-09-13T15:54:13.789Z,100059.16
2022-09-13T15:56:59.221Z,100065.59
2022-09-13T15:59:44.429Z,100049.47
2022-09-13T16:02:32.562Z,100047.28
2022-09-13T16:05:18.599Z,100051.16
2022-09-13T16:08:03.862Z,100044.25
2022-09-13T16:10:49.198Z,100062.38
2022-09-13T16:13:34.986Z,100044.19
2022-09-13T16:16:20.365Z,100064.25
2022-09-13T16:19:05.624Z,100059.34
2022-09-13T16:21:50.852Z,100068.13
2022-09-13T16:24:35.839Z,100043.81
2022-09-13T16:27:21.025Z,100069.44
2022-09-13T16:30:07.287Z,100044.25
2022-09-13T16:32:52.749Z,100038.59
2022-09-13T16:35:37.710Z,100038.53
2022-09-13T16:38:23.330Z,100025.66
2022-09-13T16:41:08.872Z,100026.88
2022-09-13T16:43:54.965Z,100051.09
2022-09-13T16:46:40.249Z,100024.56
2022-09-13T16:49:25.995Z,100028.34
2022-09-13T16:52:11.159Z,100021.91
2022-09-13T16:54:55.934Z,100032.09
2022-09-13T16:57:40.711Z,100028.06
2022-09-13T17:00:25.747Z,100026.75
2022-09-13T17:03:10.993Z,100025.38
2022-09-13T17:06:01.034Z,100014.81
2022-09-13T17:08:50.146Z,100035.41
2022-09-13T17:11:38.650Z,100021.72
2022-09-13T17:14:23.954Z,100043.69
2022-09-13T17:17:09.344Z,100029.97
2022-09-13T17:19:54.835Z,100029.41
2022-09-13T17:22:41.056Z,100059.66
2022-09-13T17:25:26.350Z,100042.34
2022-09-13T17:28:14.985Z,100074.16
2022-09-13T17:31:02.501Z,100072.78
2022-09-13T17:33:48.192Z,100085.34
2022-09-13T17:36:33.471Z,100091.06
2022-09-13T17:39:19.563Z,100073.84
2022-09-13T17:42:04.883Z,100084.31
2022-09-13T17:44:50.407Z,100097.88
2022-09-13T17:47:35.313Z,100095.25
2022-09-13T17:50:20.939Z,100101.84
2022-09-13T17:53:06.037Z,100100.94
2022-09-13T17:55:51.418Z,100093.91
2022-09-13T17:58:36.587Z,100091.13
2022-09-13T18:01:21.998Z,100095.69
2022-09-13T18:04:07.872Z,100113.22
2022-09-13T18:06:53.326Z,100117.47
2022-09-13T18:09:38.344Z,100119.56
2022-09-13T18:12:23.436Z,100115.00
2022-09-13T18:15:09.256Z,100114.91
2022-09-13T18:17:53.976Z,100113.66
2022-09-13T18:20:44.988Z,100094.22
2022-09-13T18:23:31.537Z,100089.88
2022-09-13T18:26:18.898Z,100060.41
2022-09-13T18:29:06.972Z,100081.63
2022-09-13T18:31:52.103Z,100051.72
2022-09-13T18:34:37.844Z,100056.31
2022-09-13T18:37:22.914Z,100063.34
2022-09-13T18:40:08.279Z,100040.06
2022-09-13T18:42:54.583Z,100059.19
2022-09-13T18:45:39.925Z,100055.91
2022-09-13T18:48:28.648Z,100080.56
2022-09-13T18:51:19.605Z,100088.91
2022-09-13T18:54:06.599Z,100095.03
2022-09-13T18:56:53.770Z,100127.19
2022-09-13T18:59:38.705Z,100128.16
2022-09-13T19:02:24.467Z,100117.25
2022-09-13T19:05:09.806Z,100137.66
2022-09-13T19:07:54.674Z,100145.53
2022-09-13T19:10:39.646Z,100143.13
2022-09-13T19:13:24.613Z,100137.06
2022-09-13T19:16:14.049Z,100142.41
2022-09-13T19:18:59.495Z,100125.56
2022-09-13T19:21:44.802Z,100108.19
2022-09-13T19:24:30.132Z,100107.13
2022-09-13T19:27:15.633Z,100104.50
2022-09-13T19:30:00.957Z,100115.78
2022-09-13T19:32:46.177Z,100151.19
2022-09-13T19:35:31.032Z,100149.34
2022-09-13T19:38:16.097Z,100135.66
2022-09-13T19:41:04.336Z,100152.59
2022-09-13T19:43:50.955Z,100150.31
2022-09-13T19:46:39.024Z,100153.97
2022-09-13T19:49:24.346Z,100149.72
2022-09-13T19:52:09.904Z,100160.66
2022-09-13T19:54:54.883Z,100149.63
2022-09-13T19:57:44.316Z,100148.28
2022-09-13T20:00:30.163Z,100142.22
2022-09-13T20:03:15.872Z,100149.47
2022-09-13T20:06:02.793Z,100143.06
2022-09-13T20:08:47.899Z,100134.38
2022-09-13T20:11:33.081Z,100137.63
2022-09-13T20:14:19.748Z,100139.75
2022-09-13T20:17:05.453Z,100141.31
2022-09-13T20:19:50.565Z,100081.47
2022-09-13T20:22:35.908Z,100074.22
2022-09-13T20:25:21.739Z,100088.09
2022-09-13T20:28:06.590Z,100080.38
2022-09-13T20:30:59.416Z,100079.59
2022-09-13T20:33:44.527Z,100089.06
2022-09-13T20:36:31.680Z,100080.47
2022-09-13T20:39:16.788Z,100084.25
2022-09-13T20:42:02.193Z,100084.75
2022-09-13T20:44:46.984Z,100084.13
2022-09-13T20:47:31.926Z,100084.25
2022-09-13T20:50:16.734Z,100084.25
2022-09-13T20:53:01.549Z,100086.13
2022-09-13T20:55:46.342Z,100087.91
2022-09-13T20:58:32.170Z,100096.59
2022-09-13T21:01:19.168Z,100086.84
2022-09-13T21:04:05.020Z,100091.19
2022-09-13T21:06:50.295Z,100098.03
2022-09-13T21:09:35.762Z,100095.88
2022-09-13T21:12:20.978Z,100093.06
2022-09-13T21:15:06.300Z,100107.38
2022-09-13T21:17:51.417Z,100113.41
2022-09-13T21:20:36.516Z,100115.16
2022-09-13T21:23:21.809Z,100129.06
2022-09-13T21:26:10.445Z,100130.13
2022-09-13T21:28:56.555Z,100127.63
2022-09-13T21:31:41.637Z,100126.69
2022-09-13T21:34:28.195Z,100111.63
2022-09-13T21:37:13.305Z,100101.41
2022-09-13T21:39:58.431Z,100106.66
2022-09-13T21:42:43.797Z,100092.88
2022-09-13T21:45:28.629Z,100097.09
2022-09-13T21:48:13.537Z,100081.19
2022-09-13T21:51:17.489Z,100085.63
2022-09-13T21:54:05.202Z,100087.38
2022-09-13T21:56:52.476Z,100089.28
2022-09-13T21:59:37.582Z,100082.22
2022-09-13T22:02:22.603Z,100104.88
2022-09-13T22:05:08.297Z,100111.03
2022-09-13T22:07:53.727Z,100123.41
2022-09-13T22:10:38.895Z,100120.03
2022-09-13T22:13:23.751Z,100125.31
2022-09-13T22:16:09.591Z,100122.66
2022-09-13T22:19:10.914Z,100102.50
2022-09-13T22:21:58.514Z,100081.72
2022-09-13T22:24:43.861Z,100070.31
2022-09-13T22:27:29.456Z,100076.44
2022-09-13T22:30:14.637Z,100089.63
2022-09-13T22:32:59.957Z,100111.47
2022-09-13T22:35:44.874Z,100098.22
2022-09-13T22:38:30.341Z,100112.38
2022-09-13T22:41:19.203Z,100093.34
2022-09-13T22:44:04.391Z,100096.72
2022-09-13T22:46:49.618Z,100092.50
2022-09-13T22:49:34.932Z,100101.94
2022-09-13T22:52:19.811Z,100121.28
2022-09-13T22:55:05.206Z,100103.13
2022-09-13T22:57:52.770Z,100101.47
2022-09-13T23:00:37.966Z,100083.09
2022-09-13T23:03:22.912Z,100096.22
2022-09-13T23:06:09.562Z,100111.28
2022-09-13T23:08:57.245Z,100111.16
2022-09-13T23:11:42.741Z,100127.72
2022-09-13T23:14:27.591Z,100132.28
2022-09-13T23:17:12.420Z,100116.69
2022-09-13T23:19:57.593Z,100114.19
2022-09-13T23:22:42.776Z,100121.00
2022-09-13T23:25:27.959Z,100088.03
2022-09-13T23:28:13.166Z,100101.09
2022-09-13T23:31:18.006Z,100130.78
2022-09-13T23:34:05.780Z,100123.97
2022-09-13T23:36:50.895Z,100122.19
2022-09-13T23:39:36.181Z,100122.06
2022-09-13T23:42:21.041Z,100114.09
2022-09-13T23:45:06.559Z,100100.19
2022-09-13T23:47:51.749Z,100098.53
2022-09-13T23:50:36.682Z,100088.78
2022-09-13T23:53:21.601Z,100082.56
2022-09-13T23:56:07.337Z,100072.00
2022-09-13T23:58:52.452Z,100064.44
